Terminal Aerodrome Forecast
Issued by NWS Mt. Holly, NJ

Home | Current Version | Previous Version | Text Only | Print | Product List | Glossary On
Versions: 1 2 3 4 5 6 7 8 9 10 11 12 13 14 15 16 17 18 19 20 21 22 23 24 25 26 27 28 29 30 31 32 33 34 35 36 37 38 39 40 41 42 43 44 45 46 47 48
074
FTUS41 KPHI 190539
TAFABE
TAF
KABE 190539Z 1906/2006 VRB03KT 4SM BR SCT005 SCT070
      TEMPO 1906/1909 1SM BR BKN005
     FM190900 VRB03KT 1SM BR OVC010
     FM191100 VRB03KT 4SM BR SCT010
     FM191400 29006KT P6SM FEW040
     FM191700 26006KT P6SM SCT050
     FM200000 VRB03KT P6SM SCT250=

USA.gov is the U.S. government's official web portal to all federal, state and local government web resources and services.